createdAt,value
2017-12-17T00:00:52.126Z,3.69
2017-12-17T00:01:52.194Z,3.63
2017-12-17T00:02:52.157Z,3.73
2017-12-17T00:03:52.174Z,3.69
2017-12-17T00:04:52.188Z,3.73
2017-12-17T00:05:52.203Z,3.70
2017-12-17T00:06:52.219Z,3.73
2017-12-17T00:07:52.234Z,3.73
2017-12-17T00:08:52.249Z,3.70
2017-12-17T00:09:52.269Z,3.68
2017-12-17T00:10:52.280Z,3.70
2017-12-17T00:11:52.296Z,3.74
2017-12-17T00:12:52.311Z,3.68
2017-12-17T00:13:52.329Z,3.68
2017-12-17T00:14:52.343Z,3.73
2017-12-17T00:15:52.358Z,3.62
2017-12-17T00:16:52.374Z,3.59
2017-12-17T00:17:52.388Z,3.74
2017-12-17T00:18:52.404Z,3.76
2017-12-17T00:19:52.421Z,3.74
2017-12-17T00:20:52.442Z,3.66
2017-12-17T00:21:52.450Z,3.69
2017-12-17T00:22:52.467Z,3.68
2017-12-17T00:23:52.483Z,3.59
2017-12-17T00:24:52.501Z,3.69
2017-12-17T00:25:52.512Z,3.68
2017-12-17T00:26:52.528Z,3.68
2017-12-17T00:27:52.543Z,3.74
2017-12-17T00:28:52.561Z,3.69
2017-12-17T00:29:52.575Z,3.73
2017-12-17T00:30:52.689Z,3.68
2017-12-17T00:31:52.607Z,3.73
2017-12-17T00:32:52.627Z,3.70
2017-12-17T00:33:52.636Z,3.69
2017-12-17T00:34:52.652Z,3.69
2017-12-17T00:35:52.667Z,3.65
2017-12-17T00:36:52.683Z,3.55
2017-12-17T00:37:52.697Z,3.62
2017-12-17T00:38:52.718Z,3.59
2017-12-17T00:39:52.730Z,3.56
2017-12-17T00:40:52.744Z,3.60
2017-12-17T00:41:52.760Z,3.58
2017-12-17T00:42:52.774Z,3.56
2017-12-17T00:43:52.792Z,3.58
2017-12-17T00:44:52.861Z,3.60
2017-12-17T00:45:52.822Z,3.48
2017-12-17T00:46:52.836Z,3.55
2017-12-17T00:47:52.852Z,3.58
2017-12-17T00:48:52.866Z,3.53
2017-12-17T00:49:52.884Z,3.48
2017-12-17T00:50:52.898Z,3.48
2017-12-17T00:51:52.914Z,3.42
2017-12-17T00:52:52.929Z,3.44
2017-12-17T00:53:52.945Z,3.50
2017-12-17T00:54:52.961Z,3.53
2017-12-17T00:55:52.975Z,3.40
2017-12-17T00:56:52.991Z,3.37
2017-12-17T00:57:53.005Z,3.34
2017-12-17T00:58:53.026Z,3.40
2017-12-17T00:59:53.037Z,3.42
2017-12-17T01:00:53.051Z,3.41
2017-12-17T01:01:53.067Z,3.50
2017-12-17T01:02:53.082Z,3.36
2017-12-17T01:03:53.097Z,3.42
2017-12-17T01:04:53.113Z,3.36
2017-12-17T01:05:53.127Z,3.34
2017-12-17T01:06:53.154Z,3.36
2017-12-17T01:07:53.159Z,3.40
2017-12-17T01:08:53.174Z,3.32
2017-12-17T01:09:53.189Z,3.31
2017-12-17T01:10:53.204Z,3.28
2017-12-17T01:11:53.219Z,3.31
2017-12-17T01:12:53.233Z,3.34
2017-12-17T01:13:53.250Z,3.37
2017-12-17T01:14:53.264Z,3.28
2017-12-17T01:15:53.281Z,3.19
2017-12-17T01:16:53.294Z,3.32
2017-12-17T01:17:53.311Z,3.18
2017-12-17T01:18:53.325Z,3.23
2017-12-17T01:19:53.341Z,3.16
2017-12-17T01:20:53.356Z,3.18
2017-12-17T01:21:53.370Z,3.23
2017-12-17T01:22:53.386Z,3.22
2017-12-17T01:23:53.402Z,3.18
2017-12-17T01:24:53.466Z,3.22
2017-12-17T01:25:53.431Z,3.26
2017-12-17T01:26:53.446Z,3.19
2017-12-17T01:27:53.461Z,3.19
2017-12-17T01:28:53.486Z,3.19
2017-12-17T01:29:53.491Z,3.18
2017-12-17T01:30:53.509Z,3.21
2017-12-17T01:31:53.522Z,3.16
2017-12-17T01:32:53.562Z,3.23
2017-12-17T01:33:53.552Z,3.22
2017-12-17T01:34:53.569Z,3.21
2017-12-17T01:35:53.583Z,3.28
2017-12-17T01:36:53.648Z,3.16
2017-12-17T01:37:53.614Z,3.18
2017-12-17T01:38:53.630Z,3.25
2017-12-17T01:39:53.645Z,3.19
2017-12-17T01:40:53.661Z,3.25
2017-12-17T01:41:53.673Z,3.16
2017-12-17T01:42:53.690Z,3.25
2017-12-17T01:43:53.706Z,3.21
2017-12-17T01:44:53.718Z,3.13
2017-12-17T01:45:53.735Z,3.23
2017-12-17T01:46:53.750Z,3.19
2017-12-17T01:47:53.764Z,3.14
2017-12-17T01:48:53.779Z,3.13
2017-12-17T01:49:53.800Z,3.14
2017-12-17T01:50:53.810Z,3.13
2017-12-17T01:51:53.825Z,2.95
2017-12-17T01:52:53.840Z,3.00
2017-12-17T01:53:53.854Z,3.01
2017-12-17T01:54:53.870Z,2.90
2017-12-17T01:55:53.887Z,2.90
2017-12-17T01:56:53.950Z,2.90
2017-12-17T01:57:53.916Z,2.90
2017-12-17T01:58:53.931Z,2.95
2017-12-17T01:59:53.947Z,2.87
2017-12-17T02:00:53.960Z,2.93
2017-12-17T02:01:53.977Z,2.87
2017-12-17T02:02:53.993Z,2.93
2017-12-17T02:03:54.007Z,2.85
2017-12-17T02:04:54.022Z,2.89
2017-12-17T02:05:54.037Z,2.86
2017-12-17T02:06:54.053Z,2.79
2017-12-17T02:07:54.118Z,2.79
2017-12-17T02:08:54.080Z,2.85
2017-12-17T02:09:54.097Z,2.79
2017-12-17T02:10:54.112Z,2.93
2017-12-17T02:11:54.127Z,2.93
2017-12-17T02:12:54.141Z,2.93
2017-12-17T02:13:54.156Z,2.83
2017-12-17T02:14:54.172Z,2.90
2017-12-17T02:15:54.189Z,2.83
2017-12-17T02:16:54.201Z,2.85
2017-12-17T02:17:54.217Z,2.87
2017-12-17T02:18:54.233Z,2.82
2017-12-17T02:19:54.249Z,2.80
2017-12-17T02:20:54.261Z,2.83
2017-12-17T02:21:54.277Z,2.85
2017-12-17T02:22:54.292Z,2.77
2017-12-17T02:23:54.308Z,2.82
2017-12-17T02:24:54.322Z,2.83
2017-12-17T02:25:54.337Z,2.85
2017-12-17T02:26:54.352Z,2.86
2017-12-17T02:27:54.370Z,2.86
2017-12-17T02:28:54.383Z,2.82
2017-12-17T02:29:54.397Z,2.80
2017-12-17T02:30:54.414Z,2.93
2017-12-17T02:31:54.428Z,2.90
2017-12-17T02:32:54.450Z,2.93
2017-12-17T02:33:54.459Z,2.93
2017-12-17T02:34:54.471Z,2.87
2017-12-17T02:35:54.488Z,2.95
2017-12-17T02:36:54.501Z,2.86
2017-12-17T02:37:54.517Z,2.93
2017-12-17T02:38:54.533Z,2.93
2017-12-17T02:39:54.547Z,2.83
2017-12-17T02:40:54.563Z,2.85
2017-12-17T02:41:54.577Z,2.89
2017-12-17T02:42:54.592Z,2.82
2017-12-17T02:43:54.607Z,2.86
2017-12-17T02:44:54.623Z,2.79
2017-12-17T02:45:54.639Z,2.79
2017-12-17T02:46:54.653Z,2.86
2017-12-17T02:47:54.667Z,2.77
2017-12-17T02:48:54.682Z,2.83
2017-12-17T02:49:54.698Z,2.90
2017-12-17T02:50:54.714Z,2.90
2017-12-17T02:51:54.729Z,3.00
2017-12-17T02:52:54.743Z,3.03
2017-12-17T02:53:54.758Z,3.01
2017-12-17T02:54:54.773Z,3.01
2017-12-17T02:55:54.789Z,3.01
2017-12-17T02:56:54.803Z,2.92
2017-12-17T02:57:54.818Z,3.01
2017-12-17T02:58:54.833Z,2.98
2017-12-17T02:59:54.847Z,3.05
2017-12-17T03:00:54.862Z,3.04
2017-12-17T03:01:54.881Z,3.04
2017-12-17T03:02:54.895Z,3.00
2017-12-17T03:03:54.909Z,2.90
2017-12-17T03:04:54.922Z,3.07
2017-12-17T03:05:54.939Z,2.97
2017-12-17T03:06:54.952Z,3.05
2017-12-17T03:07:54.968Z,2.98
2017-12-17T03:08:54.983Z,3.07
2017-12-17T03:09:54.998Z,3.11
2017-12-17T03:10:55.014Z,3.03
2017-12-17T03:11:55.028Z,3.10
2017-12-17T03:12:55.043Z,2.98
2017-12-17T03:13:55.058Z,3.10
2017-12-17T03:14:55.073Z,3.04
2017-12-17T03:15:55.088Z,3.18
2017-12-17T03:16:55.102Z,3.18
2017-12-17T03:17:55.117Z,3.10
2017-12-17T03:18:55.134Z,3.10
2017-12-17T03:19:55.198Z,3.08
2017-12-17T03:20:55.162Z,3.04
2017-12-17T03:21:55.196Z,3.01
2017-12-17T03:22:55.194Z,2.95
2017-12-17T03:23:55.209Z,3.05
2017-12-17T03:24:55.224Z,2.95
2017-12-17T03:25:55.240Z,2.93
2017-12-17T03:26:55.254Z,2.98
2017-12-17T03:27:55.269Z,2.92
2017-12-17T03:28:55.283Z,2.93
2017-12-17T03:29:55.298Z,2.86
2017-12-17T03:30:55.314Z,2.95
2017-12-17T03:31:55.329Z,2.95
2017-12-17T03:32:55.342Z,2.92
2017-12-17T03:33:55.358Z,3.00
2017-12-17T03:34:55.378Z,2.97
2017-12-17T03:35:55.388Z,2.85
2017-12-17T03:36:55.403Z,2.89
2017-12-17T03:37:55.419Z,2.85
2017-12-17T03:38:55.433Z,2.79
2017-12-17T03:39:55.449Z,2.86
2017-12-17T03:40:55.463Z,2.82
2017-12-17T03:41:55.477Z,2.79
2017-12-17T03:42:55.494Z,2.85
2017-12-17T03:43:55.508Z,2.87
2017-12-17T03:44:55.523Z,2.89
2017-12-17T03:45:55.538Z,2.87
2017-12-17T03:46:55.552Z,2.80
2017-12-17T03:47:55.568Z,2.72
2017-12-17T03:48:55.582Z,2.75
2017-12-17T03:49:55.598Z,2.80
2017-12-17T03:50:55.612Z,2.79
2017-12-17T03:51:55.627Z,2.77
2017-12-17T03:52:55.643Z,2.77
2017-12-17T03:53:55.656Z,2.75
2017-12-17T03:54:55.672Z,2.74
2017-12-17T03:55:55.687Z,2.72
2017-12-17T03:56:55.700Z,2.79
2017-12-17T03:57:55.716Z,2.85
2017-12-17T03:58:55.731Z,2.83
2017-12-17T03:59:55.796Z,2.85
2017-12-17T04:00:55.761Z,2.92
2017-12-17T04:01:55.776Z,2.97
2017-12-17T04:02:55.792Z,2.95
2017-12-17T04:03:55.806Z,2.85
2017-12-17T04:04:55.821Z,2.90
2017-12-17T04:05:55.835Z,2.92
2017-12-17T04:06:55.851Z,2.85
2017-12-17T04:07:55.866Z,3.01
2017-12-17T04:08:55.880Z,2.98
2017-12-17T04:09:55.894Z,2.87
2017-12-17T04:10:55.911Z,2.93
2017-12-17T04:11:55.926Z,3.00
2017-12-17T04:12:55.940Z,2.97
2017-12-17T04:13:55.956Z,2.95
2017-12-17T04:14:55.971Z,2.90
2017-12-17T04:15:55.986Z,2.97
2017-12-17T04:16:55.999Z,2.92
2017-12-17T04:17:56.015Z,2.85
2017-12-17T04:18:56.030Z,2.82
2017-12-17T04:19:56.047Z,2.82
2017-12-17T04:20:56.058Z,2.83
2017-12-17T04:21:56.527Z,2.89
2017-12-17T04:22:56.090Z,2.93
2017-12-17T04:23:56.105Z,2.90
2017-12-17T04:24:56.120Z,2.90
2017-12-17T04:25:56.134Z,2.95
2017-12-17T04:26:56.150Z,2.90
2017-12-17T04:27:56.164Z,2.87
2017-12-17T04:28:56.179Z,2.92
2017-12-17T04:29:56.196Z,3.00
2017-12-17T04:30:56.211Z,2.93
2017-12-17T04:31:56.225Z,2.89
2017-12-17T04:32:56.239Z,2.87
2017-12-17T04:33:56.255Z,2.92
2017-12-17T04:34:56.268Z,3.04
2017-12-17T04:35:56.284Z,3.00
2017-12-17T04:36:56.298Z,2.93
2017-12-17T04:37:56.314Z,2.93
2017-12-17T04:38:56.329Z,2.90
2017-12-17T04:39:56.382Z,2.90
2017-12-17T04:40:56.359Z,2.92
2017-12-17T04:41:56.373Z,2.90
2017-12-17T04:42:56.388Z,2.93
2017-12-17T04:43:56.403Z,3.00
2017-12-17T04:44:56.418Z,2.85
2017-12-17T04:45:56.432Z,2.92
2017-12-17T04:46:56.447Z,2.93
2017-12-17T04:47:56.462Z,2.95
2017-12-17T04:48:56.478Z,2.90
2017-12-17T04:49:56.493Z,2.93
2017-12-17T04:50:56.507Z,3.01
2017-12-17T04:51:56.529Z,2.98
2017-12-17T04:52:56.544Z,3.03
2017-12-17T04:53:56.552Z,3.04
2017-12-17T04:54:56.617Z,2.93
2017-12-17T04:55:56.583Z,2.97
2017-12-17T04:56:56.597Z,2.89
2017-12-17T04:57:56.613Z,2.93
2017-12-17T04:58:56.628Z,2.92
2017-12-17T04:59:56.641Z,2.92
2017-12-17T05:00:56.657Z,2.93
2017-12-17T05:01:56.672Z,2.98
2017-12-17T05:02:56.686Z,2.90
2017-12-17T05:03:56.701Z,3.03
2017-12-17T05:04:56.715Z,2.95
2017-12-17T05:05:56.731Z,3.03
2017-12-17T05:06:56.746Z,3.05
2017-12-17T05:07:56.765Z,2.97
2017-12-17T05:08:56.777Z,3.01
2017-12-17T05:09:56.791Z,2.87
2017-12-17T05:10:56.822Z,2.93
2017-12-17T05:11:56.821Z,2.97
2017-12-17T05:12:56.836Z,2.93
2017-12-17T05:13:56.852Z,2.92
2017-12-17T05:14:56.867Z,2.83
2017-12-17T05:15:56.883Z,2.87
2017-12-17T05:16:56.897Z,2.89
2017-12-17T05:17:56.915Z,2.89
2017-12-17T05:18:56.926Z,2.85
2017-12-17T05:19:56.941Z,2.80
2017-12-17T05:20:56.957Z,2.90
2017-12-17T05:21:56.974Z,2.90
2017-12-17T05:22:56.986Z,2.87
2017-12-17T05:23:57.001Z,2.85
2017-12-17T05:24:57.015Z,2.69
2017-12-17T05:25:57.035Z,2.72
2017-12-17T05:26:57.092Z,2.72
2017-12-17T05:27:57.061Z,2.74
2017-12-17T05:28:57.076Z,2.69
2017-12-17T05:29:57.089Z,2.68
2017-12-17T05:30:57.106Z,2.65
2017-12-17T05:31:57.120Z,2.71
2017-12-17T05:32:57.185Z,2.62
2017-12-17T05:33:57.150Z,2.68
2017-12-17T05:34:57.165Z,2.53
2017-12-17T05:35:57.181Z,2.47
2017-12-17T05:36:57.193Z,2.61
2017-12-17T05:37:57.210Z,2.61
2017-12-17T05:38:57.227Z,2.61
2017-12-17T05:39:57.240Z,2.68
2017-12-17T05:40:57.254Z,2.61
2017-12-17T05:41:57.269Z,2.56
2017-12-17T05:42:57.285Z,2.54
2017-12-17T05:43:57.299Z,2.56
2017-12-17T05:44:57.313Z,2.57
2017-12-17T05:45:57.328Z,2.46
2017-12-17T05:46:57.344Z,2.47
2017-12-17T05:47:57.360Z,2.42
2017-12-17T05:48:57.373Z,2.47
2017-12-17T05:49:57.388Z,2.49
2017-12-17T05:50:57.404Z,2.50
2017-12-17T05:51:57.418Z,2.46
2017-12-17T05:52:57.431Z,2.46
2017-12-17T05:53:57.446Z,2.47
2017-12-17T05:54:57.461Z,2.35
2017-12-17T05:55:57.479Z,2.49
2017-12-17T05:56:57.492Z,2.49
2017-12-17T05:57:57.505Z,2.50
2017-12-17T05:58:57.520Z,2.43
2017-12-17T05:59:57.537Z,2.43
2017-12-17T06:00:57.549Z,2.36
2017-12-17T06:01:57.565Z,2.42
2017-12-17T06:02:57.580Z,2.32
2017-12-17T06:03:57.595Z,2.31
2017-12-17T06:04:57.608Z,2.33
2017-12-17T06:05:57.624Z,2.35
2017-12-17T06:06:57.638Z,2.28
2017-12-17T06:07:57.653Z,2.31
2017-12-17T06:08:57.666Z,2.32
2017-12-17T06:09:57.683Z,2.38
2017-12-17T06:10:57.696Z,2.33
2017-12-17T06:11:57.712Z,2.33
2017-12-17T06:12:57.725Z,2.28
2017-12-17T06:13:57.740Z,2.29
2017-12-17T06:14:57.754Z,2.26
2017-12-17T06:15:57.770Z,2.25
2017-12-17T06:16:57.785Z,2.14
2017-12-17T06:17:57.800Z,2.24
2017-12-17T06:18:57.813Z,2.25
2017-12-17T06:19:57.828Z,2.20
2017-12-17T06:20:57.842Z,2.22
2017-12-17T06:21:57.856Z,2.15
2017-12-17T06:22:57.872Z,2.11
2017-12-17T06:23:57.889Z,2.17
2017-12-17T06:24:57.902Z,2.18
2017-12-17T06:25:57.919Z,2.10
2017-12-17T06:26:57.930Z,2.13
2017-12-17T06:27:57.945Z,2.06
2017-12-17T06:28:57.959Z,2.02
2017-12-17T06:29:57.975Z,2.06
2017-12-17T06:30:57.990Z,2.06
2017-12-17T06:31:58.004Z,2.02
2017-12-17T06:32:58.018Z,1.95
2017-12-17T06:33:58.032Z,1.99
2017-12-17T06:34:58.047Z,2.00
2017-12-17T06:35:58.062Z,2.06
2017-12-17T06:36:58.076Z,2.00
2017-12-17T06:37:58.092Z,2.00
2017-12-17T06:38:58.106Z,2.02
2017-12-17T06:39:58.120Z,1.91
2017-12-17T06:40:58.135Z,1.95
2017-12-17T06:41:58.149Z,1.94
2017-12-17T06:42:58.164Z,1.92
2017-12-17T06:43:58.179Z,1.95
2017-12-17T06:44:58.242Z,1.91
2017-12-17T06:45:58.207Z,1.87
2017-12-17T06:46:58.221Z,1.85
2017-12-17T06:47:58.236Z,1.84
2017-12-17T06:48:58.252Z,1.91
2017-12-17T06:49:58.266Z,1.81
2017-12-17T06:50:58.281Z,1.87
2017-12-17T06:51:58.298Z,1.88
2017-12-17T06:52:58.310Z,1.91
2017-12-17T06:53:58.324Z,1.84
2017-12-17T06:54:58.338Z,1.81
2017-12-17T06:55:58.354Z,1.84
2017-12-17T06:56:58.367Z,1.78
2017-12-17T06:57:58.381Z,1.73
2017-12-17T06:58:58.447Z,1.76
2017-12-17T06:59:58.418Z,1.73
2017-12-17T07:00:58.424Z,1.76
2017-12-17T07:01:58.440Z,1.67
2017-12-17T07:02:58.454Z,1.66
2017-12-17T07:03:58.469Z,1.70
2017-12-17T07:04:58.483Z,1.73
2017-12-17T07:05:58.499Z,1.66
2017-12-17T07:06:58.511Z,1.73
2017-12-17T07:07:58.527Z,1.63
2017-12-17T07:08:58.540Z,1.71
2017-12-17T07:09:58.604Z,1.73
2017-12-17T07:10:58.573Z,1.78
2017-12-17T07:11:58.583Z,1.73
2017-12-17T07:12:58.598Z,1.77
2017-12-17T07:13:58.616Z,1.71
2017-12-17T07:14:58.626Z,1.68
2017-12-17T07:15:58.687Z,1.68
2017-12-17T07:16:58.656Z,1.63
2017-12-17T07:17:58.671Z,1.67
2017-12-17T07:18:58.684Z,1.63
2017-12-17T07:19:58.700Z,1.63
2017-12-17T07:20:58.712Z,1.66
2017-12-17T07:21:58.726Z,1.70
2017-12-17T07:22:58.742Z,1.71
2017-12-17T07:23:58.757Z,1.74
2017-12-17T07:24:58.770Z,1.74
2017-12-17T07:25:58.785Z,1.70
2017-12-17T07:26:58.799Z,1.70
2017-12-17T07:27:58.863Z,1.67
2017-12-17T07:28:58.827Z,1.73
2017-12-17T07:29:58.895Z,1.66
2017-12-17T07:30:58.860Z,1.67
2017-12-17T07:31:58.871Z,1.63
2017-12-17T07:32:58.884Z,1.67
2017-12-17T07:33:58.900Z,1.67
2017-12-17T07:34:58.914Z,1.66
2017-12-17T07:35:58.929Z,1.67
2017-12-17T07:36:58.941Z,1.63
2017-12-17T07:37:59.006Z,1.62
2017-12-17T07:38:58.971Z,1.68
2017-12-17T07:39:58.986Z,1.66
2017-12-17T07:40:59.000Z,1.67
2017-12-17T07:41:59.013Z,1.71
2017-12-17T07:42:59.028Z,1.70
2017-12-17T07:43:59.044Z,1.67
2017-12-17T07:44:59.057Z,1.77
2017-12-17T07:45:59.072Z,1.70
2017-12-17T07:46:59.086Z,1.74
2017-12-17T07:47:59.101Z,1.73
2017-12-17T07:48:59.114Z,1.70
2017-12-17T07:49:59.130Z,1.73
2017-12-17T07:50:59.143Z,1.71
2017-12-17T07:51:59.159Z,1.76
2017-12-17T07:52:59.172Z,1.73
2017-12-17T07:53:59.186Z,1.70
2017-12-17T07:54:59.201Z,1.73
2017-12-17T07:55:59.217Z,1.71
2017-12-17T07:56:59.238Z,1.77
2017-12-17T07:57:59.244Z,1.78
2017-12-17T07:58:59.266Z,1.76
2017-12-17T07:59:59.274Z,1.70
2017-12-17T08:00:59.288Z,1.70
2017-12-17T08:01:59.302Z,1.74
2017-12-17T08:02:59.367Z,1.78
2017-12-17T08:03:59.332Z,1.81
2017-12-17T08:04:59.353Z,1.76
2017-12-17T08:05:59.360Z,1.78
2017-12-17T08:06:59.375Z,1.77
2017-12-17T08:07:59.390Z,1.81
2017-12-17T08:08:59.403Z,1.81
2017-12-17T08:09:59.417Z,1.77
2017-12-17T08:10:59.432Z,1.80
2017-12-17T08:11:59.448Z,1.85
2017-12-17T08:12:59.462Z,1.85
2017-12-17T08:13:59.477Z,1.85
2017-12-17T08:14:59.491Z,1.81
2017-12-17T08:15:59.506Z,1.87
2017-12-17T08:16:59.520Z,1.85
2017-12-17T08:17:59.535Z,1.84
2017-12-17T08:18:59.598Z,1.84
2017-12-17T08:19:59.562Z,1.91
2017-12-17T08:20:59.579Z,1.95
2017-12-17T08:21:59.591Z,1.84
2017-12-17T08:22:59.607Z,1.78
2017-12-17T08:23:59.622Z,1.88
2017-12-17T08:24:59.637Z,1.88
2017-12-17T08:25:59.650Z,1.94
2017-12-17T08:26:59.666Z,1.84
2017-12-17T08:27:59.681Z,1.91
2017-12-17T08:28:59.698Z,1.87
2017-12-17T08:29:59.709Z,1.85
2017-12-17T08:30:59.775Z,1.88
2017-12-17T08:31:59.740Z,1.80
2017-12-17T08:32:59.753Z,1.89
2017-12-17T08:33:59.770Z,1.78
2017-12-17T08:34:59.783Z,2.00
2017-12-17T08:35:59.798Z,1.99
2017-12-17T08:36:59.812Z,1.89
2017-12-17T08:37:59.826Z,1.99
2017-12-17T08:38:59.841Z,1.97
2017-12-17T08:39:59.857Z,1.99
2017-12-17T08:40:59.872Z,1.94
2017-12-17T08:41:59.885Z,1.92
2017-12-17T08:42:59.900Z,1.99
2017-12-17T08:43:59.916Z,1.99
2017-12-17T08:44:59.929Z,2.00
2017-12-17T08:45:59.946Z,1.99
2017-12-17T08:46:59.958Z,1.97
2017-12-17T08:47:59.973Z,1.95
2017-12-17T08:48:59.987Z,2.02
2017-12-17T08:50:00.002Z,1.85
2017-12-17T08:51:00.019Z,2.00
2017-12-17T08:52:00.082Z,1.92
2017-12-17T08:53:00.047Z,1.95
2017-12-17T08:54:00.063Z,1.99
2017-12-17T08:55:00.076Z,2.06
2017-12-17T08:56:00.092Z,2.07
2017-12-17T08:57:00.105Z,2.22
2017-12-17T08:58:00.121Z,2.24
2017-12-17T08:59:00.135Z,2.18
2017-12-17T09:00:00.151Z,2.14
2017-12-17T09:01:00.165Z,2.14
2017-12-17T09:02:00.179Z,2.20
2017-12-17T09:03:00.195Z,2.24
2017-12-17T09:04:00.209Z,2.17
2017-12-17T09:05:00.223Z,2.14
2017-12-17T09:06:00.239Z,2.15
2017-12-17T09:07:00.255Z,2.29
2017-12-17T09:08:00.268Z,2.25
2017-12-17T09:09:00.283Z,2.26
2017-12-17T09:10:00.299Z,2.18
2017-12-17T09:11:00.314Z,2.13
2017-12-17T09:12:00.329Z,2.15
2017-12-17T09:13:00.342Z,2.17
2017-12-17T09:14:00.358Z,2.20
2017-12-17T09:15:00.373Z,2.24
2017-12-17T09:16:00.390Z,2.14
2017-12-17T09:17:00.403Z,2.20
2017-12-17T09:18:00.417Z,2.20
2017-12-17T09:19:00.433Z,2.13
2017-12-17T09:20:00.448Z,2.08
2017-12-17T09:21:00.461Z,2.14
2017-12-17T09:22:00.478Z,2.20
2017-12-17T09:23:00.492Z,2.18
2017-12-17T09:24:00.508Z,2.35
2017-12-17T09:25:00.522Z,2.29
2017-12-17T09:26:00.537Z,2.33
2017-12-17T09:27:00.551Z,2.18
2017-12-17T09:28:00.567Z,2.18
2017-12-17T09:29:00.582Z,2.24
2017-12-17T09:30:00.595Z,2.25
2017-12-17T09:31:00.611Z,2.22
2017-12-17T09:32:00.676Z,2.32
2017-12-17T09:33:00.640Z,2.33
2017-12-17T09:34:00.657Z,2.31
2017-12-17T09:35:00.671Z,2.39
2017-12-17T09:36:00.687Z,2.39
2017-12-17T09:37:00.701Z,2.38
2017-12-17T09:38:00.715Z,2.33
2017-12-17T09:39:00.732Z,2.38
2017-12-17T09:40:00.796Z,2.39
2017-12-17T09:41:00.761Z,2.51
2017-12-17T09:42:00.775Z,2.51
2017-12-17T09:43:00.792Z,2.46
2017-12-17T09:44:00.806Z,2.38
2017-12-17T09:45:00.820Z,2.43
2017-12-17T09:46:00.835Z,2.46
2017-12-17T09:47:00.850Z,2.44
2017-12-17T09:48:00.867Z,2.54
2017-12-17T09:49:00.882Z,2.47
2017-12-17T09:50:00.897Z,2.46
2017-12-17T09:51:00.911Z,2.46
2017-12-17T09:52:00.926Z,2.49
2017-12-17T09:53:00.941Z,2.60
2017-12-17T09:54:00.957Z,2.64
2017-12-17T09:55:00.972Z,2.60
2017-12-17T09:56:00.988Z,2.65
2017-12-17T09:57:01.002Z,2.56
2017-12-17T09:58:01.070Z,2.56
2017-12-17T09:59:01.040Z,2.57
2017-12-17T10:00:01.049Z,2.65
2017-12-17T10:01:01.063Z,2.65
2017-12-17T10:02:01.080Z,2.65
2017-12-17T10:03:01.092Z,2.68
2017-12-17T10:04:01.109Z,2.64
2017-12-17T10:05:01.122Z,2.67
2017-12-17T10:06:01.137Z,2.64
2017-12-17T10:07:01.153Z,2.68
2017-12-17T10:08:01.169Z,2.56
2017-12-17T10:09:01.182Z,2.60
2017-12-17T10:10:01.199Z,2.54
2017-12-17T10:11:01.217Z,2.61
2017-12-17T10:12:01.230Z,2.67
2017-12-17T10:13:01.244Z,2.62
2017-12-17T10:14:01.258Z,2.79
2017-12-17T10:15:01.274Z,2.86
2017-12-17T10:16:01.290Z,2.86
2017-12-17T10:17:01.304Z,2.83
2017-12-17T10:18:01.320Z,2.92
2017-12-17T10:19:01.335Z,2.86
2017-12-17T10:20:01.351Z,2.93
2017-12-17T10:21:01.365Z,3.01
2017-12-17T10:22:01.381Z,2.71
2017-12-17T10:23:01.397Z,2.72
2017-12-17T10:24:01.411Z,2.68
2017-12-17T10:25:01.427Z,2.65
2017-12-17T10:26:01.441Z,2.64
2017-12-17T10:27:01.458Z,2.67
2017-12-17T10:28:01.474Z,2.67
2017-12-17T10:29:01.488Z,2.67
2017-12-17T10:30:01.502Z,2.60
2017-12-17T10:31:01.517Z,2.75
2017-12-17T10:32:01.583Z,2.69
2017-12-17T10:33:01.549Z,2.64
2017-12-17T10:34:01.562Z,2.65
2017-12-17T10:35:01.579Z,2.65
2017-12-17T10:36:01.593Z,2.62
2017-12-17T10:37:01.610Z,2.77
2017-12-17T10:38:01.625Z,2.75
2017-12-17T10:39:01.639Z,2.79
2017-12-17T10:40:01.655Z,2.79
2017-12-17T10:41:01.720Z,2.80
2017-12-17T10:42:01.686Z,2.75
2017-12-17T10:43:01.700Z,2.89
2017-12-17T10:44:01.716Z,2.90
2017-12-17T10:45:01.729Z,2.97
2017-12-17T10:46:01.746Z,3.04
2017-12-17T10:47:01.850Z,3.07
2017-12-17T10:48:01.777Z,3.21
2017-12-17T10:49:01.790Z,3.22
2017-12-17T10:50:01.807Z,3.14
2017-12-17T10:51:01.821Z,3.14
2017-12-17T10:52:01.838Z,3.21
2017-12-17T10:53:01.852Z,3.16
2017-12-17T10:54:01.868Z,3.18
2017-12-17T10:55:01.905Z,3.25
2017-12-17T10:56:01.899Z,3.22
2017-12-17T10:57:01.913Z,3.23
2017-12-17T10:58:01.929Z,3.22
2017-12-17T10:59:01.943Z,3.36
2017-12-17T11:00:01.960Z,3.19
2017-12-17T11:01:01.977Z,3.22
2017-12-17T11:02:01.990Z,3.14
2017-12-17T11:03:02.005Z,2.98
2017-12-17T11:04:02.021Z,3.10
2017-12-17T11:05:02.037Z,3.08
2017-12-17T11:06:02.053Z,3.11
2017-12-17T11:07:02.067Z,3.04
2017-12-17T11:08:02.087Z,3.18
2017-12-17T11:09:02.099Z,3.16
2017-12-17T11:10:02.115Z,3.19
2017-12-17T11:11:02.132Z,3.21
2017-12-17T11:12:02.245Z,3.18
2017-12-17T11:13:02.159Z,3.22
2017-12-17T11:14:02.176Z,3.34
2017-12-17T11:15:02.493Z,3.36
2017-12-17T11:16:02.207Z,3.29
2017-12-17T11:17:02.222Z,3.40
2017-12-17T11:18:02.238Z,3.34
2017-12-17T11:19:02.258Z,3.29
2017-12-17T11:20:02.270Z,3.21
2017-12-17T11:21:02.285Z,3.13
2017-12-17T11:22:02.302Z,3.14
2017-12-17T11:23:02.316Z,3.19
2017-12-17T11:24:02.333Z,3.34
2017-12-17T11:25:02.349Z,3.22
2017-12-17T11:26:02.363Z,3.34
2017-12-17T11:27:02.378Z,3.44
2017-12-17T11:28:02.395Z,3.56
2017-12-17T11:29:02.410Z,3.53
2017-12-17T11:30:02.425Z,3.51
2017-12-17T11:31:02.441Z,3.58
2017-12-17T11:32:02.456Z,3.68
2017-12-17T11:33:02.472Z,3.66
2017-12-17T11:34:02.489Z,3.65
2017-12-17T11:35:02.504Z,3.74
2017-12-17T11:36:02.520Z,3.69
2017-12-17T11:37:02.578Z,3.70
2017-12-17T11:38:02.551Z,3.76
2017-12-17T11:39:02.569Z,3.76
2017-12-17T11:40:02.583Z,3.68
2017-12-17T11:41:02.598Z,3.78
2017-12-17T11:42:02.614Z,3.76
2017-12-17T11:43:02.629Z,3.74
2017-12-17T11:44:02.645Z,3.78
2017-12-17T11:45:02.660Z,3.83
2017-12-17T11:46:02.676Z,3.95
2017-12-17T11:47:02.793Z,3.94
2017-12-17T11:48:02.708Z,3.96
2017-12-17T11:49:02.725Z,4.02
2017-12-17T11:50:02.740Z,4.02
2017-12-17T11:51:02.757Z,4.12
2017-12-17T11:52:02.773Z,4.14
2017-12-17T11:53:02.787Z,4.19
2017-12-17T11:54:02.804Z,4.13
2017-12-17T11:55:02.820Z,4.12
2017-12-17T11:56:02.835Z,4.08
2017-12-17T11:57:02.852Z,4.30
2017-12-17T11:58:02.867Z,4.31
2017-12-17T11:59:02.884Z,4.41
2017-12-17T12:00:02.901Z,4.34
2017-12-17T12:01:02.965Z,4.20
2017-12-17T12:02:02.933Z,4.13
2017-12-17T12:03:02.949Z,4.22
2017-12-17T12:04:02.966Z,4.35
2017-12-17T12:05:02.981Z,4.37
2017-12-17T12:06:02.997Z,4.42
2017-12-17T12:07:03.014Z,4.31
2017-12-17T12:08:03.031Z,4.14
2017-12-17T12:09:03.046Z,4.06
2017-12-17T12:10:03.064Z,4.12
2017-12-17T12:11:03.079Z,3.94
2017-12-17T12:12:03.097Z,3.99
2017-12-17T12:13:03.112Z,3.88
2017-12-17T12:14:03.126Z,3.95
2017-12-17T12:15:03.144Z,3.95
2017-12-17T12:16:03.160Z,3.88
2017-12-17T12:17:03.176Z,3.92
2017-12-17T12:18:03.192Z,3.94
2017-12-17T12:19:03.208Z,3.96
2017-12-17T12:20:03.225Z,3.98
2017-12-17T12:21:03.239Z,3.92
2017-12-17T12:22:03.255Z,4.05
2017-12-17T12:23:03.271Z,4.02
2017-12-17T12:24:03.288Z,4.06
2017-12-17T12:25:03.304Z,4.04
2017-12-17T12:26:03.318Z,4.12
2017-12-17T12:27:03.336Z,4.23
2017-12-17T12:28:03.351Z,4.26
2017-12-17T12:29:03.367Z,4.23
2017-12-17T12:30:03.383Z,4.30
2017-12-17T12:31:03.399Z,4.37
2017-12-17T12:32:03.416Z,4.37
2017-12-17T12:33:03.432Z,4.35
2017-12-17T12:34:03.448Z,4.23
2017-12-17T12:35:03.465Z,4.34
2017-12-17T12:36:03.481Z,4.26
2017-12-17T12:37:03.496Z,4.02
2017-12-17T12:38:03.513Z,4.06
2017-12-17T12:39:03.529Z,4.13
2017-12-17T12:40:03.545Z,4.04
2017-12-17T12:41:03.560Z,4.06
2017-12-17T12:42:03.577Z,4.06
2017-12-17T12:43:03.594Z,3.98
2017-12-17T12:44:03.612Z,4.05
2017-12-17T12:45:03.628Z,4.02
2017-12-17T12:46:03.641Z,3.99
2017-12-17T12:47:03.661Z,4.08
2017-12-17T12:48:03.674Z,4.06
2017-12-17T12:49:03.825Z,4.16
2017-12-17T12:50:03.713Z,4.26
2017-12-17T12:51:03.722Z,4.20
2017-12-17T12:52:03.738Z,4.28
2017-12-17T12:53:03.755Z,4.22
2017-12-17T12:54:03.771Z,4.16
2017-12-17T12:55:03.788Z,4.12
2017-12-17T12:56:03.803Z,4.05
2017-12-17T12:57:03.820Z,4.04
2017-12-17T12:58:03.835Z,4.04
2017-12-17T12:59:03.853Z,4.04
2017-12-17T13:00:03.870Z,3.94
2017-12-17T13:01:03.884Z,3.99
2017-12-17T13:02:03.900Z,3.99
2017-12-17T13:03:03.915Z,3.95
2017-12-17T13:04:03.933Z,3.96
2017-12-17T13:05:03.949Z,3.94
2017-12-17T13:06:03.965Z,3.95
2017-12-17T13:07:04.031Z,3.95
2017-12-17T13:08:03.996Z,4.01
2017-12-17T13:09:04.013Z,3.96
2017-12-17T13:10:04.029Z,3.99
2017-12-17T13:11:04.045Z,4.06
2017-12-17T13:12:04.061Z,3.94
2017-12-17T13:13:04.076Z,3.99
2017-12-17T13:14:04.093Z,3.95
2017-12-17T13:15:04.110Z,3.99
2017-12-17T13:16:04.126Z,3.99
2017-12-17T13:17:04.141Z,4.01
2017-12-17T13:18:04.157Z,3.98
2017-12-17T13:19:04.179Z,3.88